sensor_id;sensor_type;location;lat;lon;timestamp;temperature;humidity
70051;SHT30;57391;51.306;22.680;2022-11-23T00:01:31;1.55;89.90
70051;SHT30;57391;51.306;22.680;2022-11-23T00:04:03;1.54;89.93
70051;SHT30;57391;51.306;22.680;2022-11-23T00:06:33;1.53;89.83
70051;SHT30;57391;51.306;22.680;2022-11-23T00:09:01;1.53;89.88
70051;SHT30;57391;51.306;22.680;2022-11-23T00:11:28;1.55;89.90
70051;SHT30;57391;51.306;22.680;2022-11-23T00:13:56;1.57;89.90
70051;SHT30;57391;51.306;22.680;2022-11-23T00:16:24;1.57;89.76
70051;SHT30;57391;51.306;22.680;2022-11-23T00:19:11;1.57;89.68
70051;SHT30;57391;51.306;22.680;2022-11-23T00:21:39;1.55;89.64
70051;SHT30;57391;51.306;22.680;2022-11-23T00:24:08;1.50;89.57
70051;SHT30;57391;51.306;22.680;2022-11-23T00:26:39;1.43;89.66
70051;SHT30;57391;51.306;22.680;2022-11-23T00:29:06;1.39;89.81
70051;SHT30;57391;51.306;22.680;2022-11-23T00:31:34;1.38;89.92
70051;SHT30;57391;51.306;22.680;2022-11-23T00:34:02;1.37;90.04
70051;SHT30;57391;51.306;22.680;2022-11-23T00:36:29;1.37;90.09
70051;SHT30;57391;51.306;22.680;2022-11-23T00:39:59;1.38;90.14
70051;SHT30;57391;51.306;22.680;2022-11-23T00:42:26;1.38;90.14
70051;SHT30;57391;51.306;22.680;2022-11-23T00:44:54;1.40;90.15
70051;SHT30;57391;51.306;22.680;2022-11-23T00:47:21;1.40;90.13
70051;SHT30;57391;51.306;22.680;2022-11-23T00:49:49;1.40;90.12
70051;SHT30;57391;51.306;22.680;2022-11-23T00:52:17;1.39;90.20
70051;SHT30;57391;51.306;22.680;2022-11-23T00:54:45;1.38;90.26
70051;SHT30;57391;51.306;22.680;2022-11-23T00:59:30;1.40;90.33
70051;SHT30;57391;51.306;22.680;2022-11-23T01:01:58;1.42;90.35
70051;SHT30;57391;51.306;22.680;2022-11-23T01:04:25;1.41;90.31
70051;SHT30;57391;51.306;22.680;2022-11-23T01:06:57;1.40;90.40
70051;SHT30;57391;51.306;22.680;2022-11-23T01:09:24;1.42;90.49
70051;SHT30;57391;51.306;22.680;2022-11-23T01:11:52;1.44;90.47
70051;SHT30;57391;51.306;22.680;2022-11-23T01:14:23;1.45;90.35
70051;SHT30;57391;51.306;22.680;2022-11-23T01:16:50;1.44;90.26
70051;SHT30;57391;51.306;22.680;2022-11-23T01:19:21;1.43;90.20
70051;SHT30;57391;51.306;22.680;2022-11-23T01:21:49;1.41;90.24
70051;SHT30;57391;51.306;22.680;2022-11-23T01:24:20;1.38;90.29
70051;SHT30;57391;51.306;22.680;2022-11-23T01:26:53;1.38;90.35
70051;SHT30;57391;51.306;22.680;2022-11-23T01:29:22;1.37;90.39
70051;SHT30;57391;51.306;22.680;2022-11-23T01:31:50;1.35;90.43
70051;SHT30;57391;51.306;22.680;2022-11-23T01:34:33;1.37;90.51
70051;SHT30;57391;51.306;22.680;2022-11-23T01:37:00;1.38;90.51
70051;SHT30;57391;51.306;22.680;2022-11-23T01:39:28;1.38;90.47
70051;SHT30;57391;51.306;22.680;2022-11-23T01:41:55;1.39;90.46
70051;SHT30;57391;51.306;22.680;2022-11-23T01:44:24;1.39;90.50
70051;SHT30;57391;51.306;22.680;2022-11-23T01:47:01;1.42;90.61
70051;SHT30;57391;51.306;22.680;2022-11-23T01:49:50;1.47;90.66
70051;SHT30;57391;51.306;22.680;2022-11-23T01:52:19;1.49;90.52
70051;SHT30;57391;51.306;22.680;2022-11-23T01:54:52;1.47;90.40
70051;SHT30;57391;51.306;22.680;2022-11-23T01:57:35;1.45;90.30
70051;SHT30;57391;51.306;22.680;2022-11-23T02:00:09;1.39;90.22
70051;SHT30;57391;51.306;22.680;2022-11-23T02:02:54;1.37;90.32
70051;SHT30;57391;51.306;22.680;2022-11-23T02:05:31;1.34;90.35
70051;SHT30;57391;51.306;22.680;2022-11-23T02:08:05;1.30;90.38
70051;SHT30;57391;51.306;22.680;2022-11-23T02:10:34;1.30;90.57
70051;SHT30;57391;51.306;22.680;2022-11-23T02:13:04;1.33;90.65
70051;SHT30;57391;51.306;22.680;2022-11-23T02:15:35;1.33;90.60
70051;SHT30;57391;51.306;22.680;2022-11-23T02:18:05;1.33;90.61
70051;SHT30;57391;51.306;22.680;2022-11-23T02:20:41;1.34;90.59
70051;SHT30;57391;51.306;22.680;2022-11-23T02:26:13;1.27;90.64
70051;SHT30;57391;51.306;22.680;2022-11-23T02:28:49;1.25;90.70
70051;SHT30;57391;51.306;22.680;2022-11-23T02:31:20;1.26;90.73
70051;SHT30;57391;51.306;22.680;2022-11-23T02:33:47;1.25;90.70
70051;SHT30;57391;51.306;22.680;2022-11-23T02:36:26;1.23;90.72
70051;SHT30;57391;51.306;22.680;2022-11-23T02:39:10;1.24;90.82
70051;SHT30;57391;51.306;22.680;2022-11-23T02:41:44;1.25;90.86
70051;SHT30;57391;51.306;22.680;2022-11-23T02:47:26;1.22;90.69
70051;SHT30;57391;51.306;22.680;2022-11-23T02:49:53;1.23;90.77
70051;SHT30;57391;51.306;22.680;2022-11-23T02:52:20;1.21;90.74
70051;SHT30;57391;51.306;22.680;2022-11-23T02:54:47;1.18;90.70
70051;SHT30;57391;51.306;22.680;2022-11-23T02:57:14;1.15;90.72
70051;SHT30;57391;51.306;22.680;2022-11-23T02:59:44;1.13;90.85
70051;SHT30;57391;51.306;22.680;2022-11-23T03:02:11;1.14;90.91
70051;SHT30;57391;51.306;22.680;2022-11-23T03:04:38;1.14;90.99
70051;SHT30;57391;51.306;22.680;2022-11-23T03:07:06;1.16;91.10
70051;SHT30;57391;51.306;22.680;2022-11-23T03:09:33;1.17;90.97
70051;SHT30;57391;51.306;22.680;2022-11-23T03:12:00;1.15;90.91
70051;SHT30;57391;51.306;22.680;2022-11-23T03:14:28;1.12;90.91
70051;SHT30;57391;51.306;22.680;2022-11-23T03:16:59;1.11;90.99
70051;SHT30;57391;51.306;22.680;2022-11-23T03:19:29;1.09;91.00
70051;SHT30;57391;51.306;22.680;2022-11-23T03:21:57;1.08;91.00
70051;SHT30;57391;51.306;22.680;2022-11-23T03:24:24;1.09;91.04
70051;SHT30;57391;51.306;22.680;2022-11-23T03:26:52;1.07;91.00
70051;SHT30;57391;51.306;22.680;2022-11-23T03:29:19;1.06;91.04
70051;SHT30;57391;51.306;22.680;2022-11-23T03:31:51;1.06;91.20
70051;SHT30;57391;51.306;22.680;2022-11-23T03:34:20;1.06;91.19
70051;SHT30;57391;51.306;22.680;2022-11-23T03:36:49;1.03;91.06
70051;SHT30;57391;51.306;22.680;2022-11-23T03:39:17;1.02;91.12
70051;SHT30;57391;51.306;22.680;2022-11-23T03:41:50;1.01;91.12
70051;SHT30;57391;51.306;22.680;2022-11-23T03:44:23;0.99;91.36
70051;SHT30;57391;51.306;22.680;2022-11-23T03:46:51;0.99;91.16
70051;SHT30;57391;51.306;22.680;2022-11-23T03:49:18;0.97;91.11
70051;SHT30;57391;51.306;22.680;2022-11-23T03:51:45;0.95;90.96
70051;SHT30;57391;51.306;22.680;2022-11-23T03:54:14;0.87;90.87
70051;SHT30;57391;51.306;22.680;2022-11-23T03:56:41;0.83;90.99
70051;SHT30;57391;51.306;22.680;2022-11-23T03:59:08;0.82;91.10
70051;SHT30;57391;51.306;22.680;2022-11-23T04:01:35;0.80;91.10
70051;SHT30;57391;51.306;22.680;2022-11-23T04:04:05;0.80;91.11
70051;SHT30;57391;51.306;22.680;2022-11-23T04:07:08;0.78;91.10
70051;SHT30;57391;51.306;22.680;2022-11-23T04:09:40;0.75;91.10
70051;SHT30;57391;51.306;22.680;2022-11-23T04:12:36;0.74;91.14
70051;SHT30;57391;51.306;22.680;2022-11-23T04:15:04;0.73;91.17
70051;SHT30;57391;51.306;22.680;2022-11-23T04:17:32;0.73;91.20
70051;SHT30;57391;51.306;22.680;2022-11-23T04:20:00;0.73;91.19
70051;SHT30;57391;51.306;22.680;2022-11-23T04:22:27;0.73;91.12
70051;SHT30;57391;51.306;22.680;2022-11-23T04:24:54;0.72;91.19
70051;SHT30;57391;51.306;22.680;2022-11-23T04:27:22;0.74;91.20
70051;SHT30;57391;51.306;22.680;2022-11-23T04:29:49;0.74;91.18
70051;SHT30;57391;51.306;22.680;2022-11-23T04:32:17;0.71;91.12
70051;SHT30;57391;51.306;22.680;2022-11-23T04:34:45;0.70;91.14
70051;SHT30;57391;51.306;22.680;2022-11-23T04:37:12;0.69;91.23
70051;SHT30;57391;51.306;22.680;2022-11-23T04:39:41;0.69;91.31
70051;SHT30;57391;51.306;22.680;2022-11-23T04:42:28;0.72;91.37
70051;SHT30;57391;51.306;22.680;2022-11-23T04:44:58;0.73;91.30
70051;SHT30;57391;51.306;22.680;2022-11-23T04:47:25;0.72;91.26
70051;SHT30;57391;51.306;22.680;2022-11-23T04:49:53;0.73;91.29
70051;SHT30;57391;51.306;22.680;2022-11-23T04:52:21;0.72;91.25
70051;SHT30;57391;51.306;22.680;2022-11-23T04:54:49;0.68;91.21
70051;SHT30;57391;51.306;22.680;2022-11-23T04:57:17;0.64;91.31
70051;SHT30;57391;51.306;22.680;2022-11-23T04:59:45;0.60;91.33
70051;SHT30;57391;51.306;22.680;2022-11-23T05:02:12;0.55;91.42
70051;SHT30;57391;51.306;22.680;2022-11-23T05:04:58;0.52;91.53
70051;SHT30;57391;51.306;22.680;2022-11-23T05:07:28;0.49;91.65
70051;SHT30;57391;51.306;22.680;2022-11-23T05:09:57;0.47;91.70
70051;SHT30;57391;51.306;22.680;2022-11-23T05:12:25;0.43;91.74
70051;SHT30;57391;51.306;22.680;2022-11-23T05:14:52;0.42;91.84
70051;SHT30;57391;51.306;22.680;2022-11-23T05:17:23;0.41;91.90
70051;SHT30;57391;51.306;22.680;2022-11-23T05:19:53;0.40;91.87
70051;SHT30;57391;51.306;22.680;2022-11-23T05:22:22;0.37;91.93
70051;SHT30;57391;51.306;22.680;2022-11-23T05:24:49;0.38;92.02
70051;SHT30;57391;51.306;22.680;2022-11-23T05:27:19;0.35;91.92
70051;SHT30;57391;51.306;22.680;2022-11-23T05:29:46;0.31;91.92
70051;SHT30;57391;51.306;22.680;2022-11-23T05:32:14;0.29;92.06
70051;SHT30;57391;51.306;22.680;2022-11-23T05:34:42;0.27;92.11
70051;SHT30;57391;51.306;22.680;2022-11-23T05:37:10;0.28;92.20
70051;SHT30;57391;51.306;22.680;2022-11-23T05:39:43;0.29;92.16
70051;SHT30;57391;51.306;22.680;2022-11-23T05:42:12;0.29;92.09
70051;SHT30;57391;51.306;22.680;2022-11-23T05:44:41;0.27;92.00
70051;SHT30;57391;51.306;22.680;2022-11-23T05:47:14;0.24;91.93
70051;SHT30;57391;51.306;22.680;2022-11-23T05:49:41;0.21;91.95
70051;SHT30;57391;51.306;22.680;2022-11-23T05:52:09;0.21;92.02
70051;SHT30;57391;51.306;22.680;2022-11-23T05:54:36;0.21;92.13
70051;SHT30;57391;51.306;22.680;2022-11-23T05:57:10;0.24;92.18
70051;SHT30;57391;51.306;22.680;2022-11-23T05:59:41;0.24;92.05
70051;SHT30;57391;51.306;22.680;2022-11-23T06:02:11;0.22;92.08
70051;SHT30;57391;51.306;22.680;2022-11-23T06:04:38;0.26;92.22
70051;SHT30;57391;51.306;22.680;2022-11-23T06:07:08;0.27;92.09
70051;SHT30;57391;51.306;22.680;2022-11-23T06:09:52;0.28;92.11
70051;SHT30;57391;51.306;22.680;2022-11-23T06:12:19;0.28;92.10
70051;SHT30;57391;51.306;22.680;2022-11-23T06:14:47;0.31;92.12
70051;SHT30;57391;51.306;22.680;2022-11-23T06:17:16;0.30;91.94
70051;SHT30;57391;51.306;22.680;2022-11-23T06:19:46;0.25;91.84
70051;SHT30;57391;51.306;22.680;2022-11-23T06:22:14;0.22;91.95
70051;SHT30;57391;51.306;22.680;2022-11-23T06:24:52;0.22;92.01
70051;SHT30;57391;51.306;22.680;2022-11-23T06:27:40;0.23;92.01
70051;SHT30;57391;51.306;22.680;2022-11-23T06:30:14;0.22;91.95
70051;SHT30;57391;51.306;22.680;2022-11-23T06:32:42;0.21;91.88
70051;SHT30;57391;51.306;22.680;2022-11-23T06:35:10;0.21;91.96
70051;SHT30;57391;51.306;22.680;2022-11-23T06:37:39;0.23;92.00
70051;SHT30;57391;51.306;22.680;2022-11-23T06:40:07;0.24;91.97
70051;SHT30;57391;51.306;22.680;2022-11-23T06:42:37;0.26;91.91
70051;SHT30;57391;51.306;22.680;2022-11-23T06:45:05;0.26;91.88
70051;SHT30;57391;51.306;22.680;2022-11-23T06:47:34;0.28;91.90
70051;SHT30;57391;51.306;22.680;2022-11-23T06:50:01;0.29;91.86
70051;SHT30;57391;51.306;22.680;2022-11-23T06:52:31;0.29;91.88
70051;SHT30;57391;51.306;22.680;2022-11-23T06:54:58;0.31;91.85
70051;SHT30;57391;51.306;22.680;2022-11-23T06:57:26;0.29;91.61
70051;SHT30;57391;51.306;22.680;2022-11-23T06:59:53;0.26;91.54
70051;SHT30;57391;51.306;22.680;2022-11-23T07:02:26;0.22;91.54
70051;SHT30;57391;51.306;22.680;2022-11-23T07:04:55;0.21;91.66
70051;SHT30;57391;51.306;22.680;2022-11-23T07:07:22;0.19;91.63
70051;SHT30;57391;51.306;22.680;2022-11-23T07:09:56;0.18;91.66
70051;SHT30;57391;51.306;22.680;2022-11-23T07:12:31;0.14;91.63
70051;SHT30;57391;51.306;22.680;2022-11-23T07:14:59;0.13;91.75
70051;SHT30;57391;51.306;22.680;2022-11-23T07:17:28;0.13;91.80
70051;SHT30;57391;51.306;22.680;2022-11-23T07:19:56;0.14;91.91
70051;SHT30;57391;51.306;22.680;2022-11-23T07:22:23;0.16;91.88
70051;SHT30;57391;51.306;22.680;2022-11-23T07:24:51;0.17;91.91
70051;SHT30;57391;51.306;22.680;2022-11-23T07:27:18;0.19;91.87
70051;SHT30;57391;51.306;22.680;2022-11-23T07:29:46;0.20;91.81
70051;SHT30;57391;51.306;22.680;2022-11-23T07:32:13;0.19;91.76
70051;SHT30;57391;51.306;22.680;2022-11-23T07:34:41;0.17;91.65
70051;SHT30;57391;51.306;22.680;2022-11-23T07:37:09;0.15;91.70
70051;SHT30;57391;51.306;22.680;2022-11-23T07:39:36;0.18;91.89
70051;SHT30;57391;51.306;22.680;2022-11-23T07:42:03;0.23;92.01
70051;SHT30;57391;51.306;22.680;2022-11-23T07:44:35;0.27;91.91
70051;SHT30;57391;51.306;22.680;2022-11-23T07:47:02;0.29;91.69
70051;SHT30;57391;51.306;22.680;2022-11-23T07:49:30;0.26;91.40
70051;SHT30;57391;51.306;22.680;2022-11-23T07:51:56;0.21;91.31
70051;SHT30;57391;51.306;22.680;2022-11-23T07:54:23;0.22;91.44
70051;SHT30;57391;51.306;22.680;2022-11-23T07:56:50;0.23;91.50
70051;SHT30;57391;51.306;22.680;2022-11-23T07:59:18;0.23;91.36
70051;SHT30;57391;51.306;22.680;2022-11-23T08:01:45;0.24;91.41
70051;SHT30;57391;51.306;22.680;2022-11-23T08:04:12;0.26;91.44
70051;SHT30;57391;51.306;22.680;2022-11-23T08:06:40;0.28;91.50
70051;SHT30;57391;51.306;22.680;2022-11-23T08:09:07;0.32;91.55
70051;SHT30;57391;51.306;22.680;2022-11-23T08:11:34;0.35;91.49
70051;SHT30;57391;51.306;22.680;2022-11-23T08:14:01;0.37;91.47
70051;SHT30;57391;51.306;22.680;2022-11-23T08:16:29;0.41;91.56
70051;SHT30;57391;51.306;22.680;2022-11-23T08:18:56;0.47;91.57
70051;SHT30;57391;51.306;22.680;2022-11-23T08:21:23;0.49;91.41
70051;SHT30;57391;51.306;22.680;2022-11-23T08:23:51;0.53;91.48
70051;SHT30;57391;51.306;22.680;2022-11-23T08:26:18;0.55;91.32
70051;SHT30;57391;51.306;22.680;2022-11-23T08:28:46;0.56;91.22
70051;SHT30;57391;51.306;22.680;2022-11-23T08:31:13;0.56;91.17
70051;SHT30;57391;51.306;22.680;2022-11-23T08:33:40;0.57;91.07
70051;SHT30;57391;51.306;22.680;2022-11-23T08:36:09;0.58;91.12
70051;SHT30;57391;51.306;22.680;2022-11-23T08:38:36;0.61;91.17
70051;SHT30;57391;51.306;22.680;2022-11-23T08:41:04;0.62;90.98
70051;SHT30;57391;51.306;22.680;2022-11-23T08:43:31;0.62;90.92
70051;SHT30;57391;51.306;22.680;2022-11-23T08:46:00;0.63;91.02
70051;SHT30;57391;51.306;22.680;2022-11-23T08:48:30;0.65;91.08
70051;SHT30;57391;51.306;22.680;2022-11-23T08:50:57;0.67;90.89
70051;SHT30;57391;51.306;22.680;2022-11-23T08:53:26;0.65;90.70
70051;SHT30;57391;51.306;22.680;2022-11-23T08:55:53;0.63;90.70
70051;SHT30;57391;51.306;22.680;2022-11-23T08:58:20;0.62;90.74
70051;SHT30;57391;51.306;22.680;2022-11-23T09:00:48;0.61;90.73
70051;SHT30;57391;51.306;22.680;2022-11-23T09:03:15;0.62;90.85
70051;SHT30;57391;51.306;22.680;2022-11-23T09:05:42;0.67;91.02
70051;SHT30;57391;51.306;22.680;2022-11-23T09:08:10;0.70;91.05
70051;SHT30;57391;51.306;22.680;2022-11-23T09:10:37;0.75;90.88
70051;SHT30;57391;51.306;22.680;2022-11-23T09:13:04;0.77;90.80
70051;SHT30;57391;51.306;22.680;2022-11-23T09:15:32;0.78;90.73
70051;SHT30;57391;51.306;22.680;2022-11-23T09:18:00;0.81;90.76
70051;SHT30;57391;51.306;22.680;2022-11-23T09:20:27;0.82;90.74
70051;SHT30;57391;51.306;22.680;2022-11-23T09:22:54;0.86;90.77
70051;SHT30;57391;51.306;22.680;2022-11-23T09:25:42;0.90;90.66
70051;SHT30;57391;51.306;22.680;2022-11-23T09:28:13;0.90;90.62
70051;SHT30;57391;51.306;22.680;2022-11-23T09:30:40;0.91;90.54
70051;SHT30;57391;51.306;22.680;2022-11-23T09:33:08;0.90;90.49
70051;SHT30;57391;51.306;22.680;2022-11-23T09:35:35;0.89;90.48
70051;SHT30;57391;51.306;22.680;2022-11-23T09:38:02;0.88;90.53
70051;SHT30;57391;51.306;22.680;2022-11-23T09:40:31;0.90;90.62
70051;SHT30;57391;51.306;22.680;2022-11-23T09:45:54;0.93;90.55
70051;SHT30;57391;51.306;22.680;2022-11-23T09:48:27;0.97;90.70
70051;SHT30;57391;51.306;22.680;2022-11-23T09:51:25;1.01;90.71
70051;SHT30;57391;51.306;22.680;2022-11-23T09:53:54;1.03;90.59
70051;SHT30;57391;51.306;22.680;2022-11-23T09:56:33;1.03;90.36
70051;SHT30;57391;51.306;22.680;2022-11-23T09:59:17;1.04;90.26
70051;SHT30;57391;51.306;22.680;2022-11-23T10:11:23;1.05;89.99
70051;SHT30;57391;51.306;22.680;2022-11-23T10:17:25;1.05;89.68
70051;SHT30;57391;51.306;22.680;2022-11-23T10:26:35;0.99;89.54
70051;SHT30;57391;51.306;22.680;2022-11-23T10:29:12;1.01;89.61
70051;SHT30;57391;51.306;22.680;2022-11-23T10:31:53;1.05;89.70
70051;SHT30;57391;51.306;22.680;2022-11-23T10:34:23;1.05;89.67
70051;SHT30;57391;51.306;22.680;2022-11-23T10:37:01;1.03;89.44
70051;SHT30;57391;51.306;22.680;2022-11-23T10:39:28;1.02;89.48
70051;SHT30;57391;51.306;22.680;2022-11-23T10:41:58;1.06;89.60
70051;SHT30;57391;51.306;22.680;2022-11-23T10:44:38;1.09;89.37
70051;SHT30;57391;51.306;22.680;2022-11-23T10:47:08;1.07;89.04
70051;SHT30;57391;51.306;22.680;2022-11-23T10:49:36;1.07;89.01
70051;SHT30;57391;51.306;22.680;2022-11-23T10:52:05;1.08;89.11
70051;SHT30;57391;51.306;22.680;2022-11-23T10:54:55;1.11;89.29
70051;SHT30;57391;51.306;22.680;2022-11-23T11:08:02;1.09;89.31
70051;SHT30;57391;51.306;22.680;2022-11-23T11:11:03;1.07;89.39
70051;SHT30;57391;51.306;22.680;2022-11-23T11:13:46;1.05;89.54
70051;SHT30;57391;51.306;22.680;2022-11-23T11:16:28;1.10;89.65
70051;SHT30;57391;51.306;22.680;2022-11-23T11:18:58;1.14;89.54
70051;SHT30;57391;51.306;22.680;2022-11-23T11:22:03;1.14;89.25
70051;SHT30;57391;51.306;22.680;2022-11-23T11:25:03;1.18;89.36
70051;SHT30;57391;51.306;22.680;2022-11-23T11:27:33;1.20;89.29
70051;SHT30;57391;51.306;22.680;2022-11-23T11:30:06;1.18;89.16
70051;SHT30;57391;51.306;22.680;2022-11-23T11:35:38;1.11;89.30
70051;SHT30;57391;51.306;22.680;2022-11-23T11:38:31;1.11;89.30
70051;SHT30;57391;51.306;22.680;2022-11-23T11:41:07;1.08;89.33
70051;SHT30;57391;51.306;22.680;2022-11-23T11:46:22;1.04;89.20
70051;SHT30;57391;51.306;22.680;2022-11-23T11:51:46;1.05;89.27
70051;SHT30;57391;51.306;22.680;2022-11-23T11:56:59;1.08;89.32
70051;SHT30;57391;51.306;22.680;2022-11-23T11:59:57;1.13;89.42
70051;SHT30;57391;51.306;22.680;2022-11-23T12:02:35;1.14;89.21
70051;SHT30;57391;51.306;22.680;2022-11-23T12:05:34;1.16;88.98
70051;SHT30;57391;51.306;22.680;2022-11-23T12:08:17;1.15;88.85
70051;SHT30;57391;51.306;22.680;2022-11-23T12:11:07;1.12;88.74
70051;SHT30;57391;51.306;22.680;2022-11-23T12:13:39;1.09;88.50
70051;SHT30;57391;51.306;22.680;2022-11-23T12:30:51;1.12;88.86
70051;SHT30;57391;51.306;22.680;2022-11-23T12:48:20;1.07;88.58
70051;SHT30;57391;51.306;22.680;2022-11-23T13:11:44;1.05;88.51
70051;SHT30;57391;51.306;22.680;2022-11-23T13:17:30;1.13;88.71
70051;SHT30;57391;51.306;22.680;2022-11-23T13:22:38;1.18;88.48
70051;SHT30;57391;51.306;22.680;2022-11-23T13:30:26;1.17;88.20
70051;SHT30;57391;51.306;22.680;2022-11-23T13:40:24;1.06;88.11
70051;SHT30;57391;51.306;22.680;2022-11-23T13:43:38;1.04;88.22
70051;SHT30;57391;51.306;22.680;2022-11-23T13:46:21;1.01;88.20
70051;SHT30;57391;51.306;22.680;2022-11-23T13:48:52;1.01;88.23
70051;SHT30;57391;51.306;22.680;2022-11-23T13:53:58;0.98;88.27
70051;SHT30;57391;51.306;22.680;2022-11-23T13:56:54;1.00;88.36
70051;SHT30;57391;51.306;22.680;2022-11-23T13:59:30;1.03;88.37
70051;SHT30;57391;51.306;22.680;2022-11-23T14:02:01;1.04;88.22
70051;SHT30;57391;51.306;22.680;2022-11-23T14:07:18;1.02;88.01
70051;SHT30;57391;51.306;22.680;2022-11-23T14:09:53;1.04;88.16
70051;SHT30;57391;51.306;22.680;2022-11-23T14:12:32;1.04;88.20
70051;SHT30;57391;51.306;22.680;2022-11-23T14:15:27;1.07;88.20
70051;SHT30;57391;51.306;22.680;2022-11-23T14:35:43;1.07;87.85
70051;SHT30;57391;51.306;22.680;2022-11-23T14:43:55;0.98;87.88
70051;SHT30;57391;51.306;22.680;2022-11-23T14:46:27;0.94;87.90
70051;SHT30;57391;51.306;22.680;2022-11-23T14:49:05;0.91;87.99
70051;SHT30;57391;51.306;22.680;2022-11-23T14:51:40;0.89;88.00
70051;SHT30;57391;51.306;22.680;2022-11-23T14:54:13;0.88;88.02
70051;SHT30;57391;51.306;22.680;2022-11-23T14:56:45;0.86;88.09
70051;SHT30;57391;51.306;22.680;2022-11-23T15:01:48;0.80;88.00
70051;SHT30;57391;51.306;22.680;2022-11-23T15:04:25;0.76;88.02
70051;SHT30;57391;51.306;22.680;2022-11-23T15:13:15;0.59;88.36
70051;SHT30;57391;51.306;22.680;2022-11-23T15:15:51;0.54;88.53
70051;SHT30;57391;51.306;22.680;2022-11-23T15:18:31;0.53;88.66
70051;SHT30;57391;51.306;22.680;2022-11-23T15:23:42;0.59;88.82
70051;SHT30;57391;51.306;22.680;2022-11-23T15:26:22;0.61;88.71
70051;SHT30;57391;51.306;22.680;2022-11-23T15:28:57;0.60;88.67
70051;SHT30;57391;51.306;22.680;2022-11-23T15:31:31;0.58;88.61
70051;SHT30;57391;51.306;22.680;2022-11-23T15:34:03;0.56;88.62
70051;SHT30;57391;51.306;22.680;2022-11-23T15:36:40;0.50;88.47
70051;SHT30;57391;51.306;22.680;2022-11-23T15:39:13;0.48;88.50
70051;SHT30;57391;51.306;22.680;2022-11-23T15:41:46;0.48;88.57
70051;SHT30;57391;51.306;22.680;2022-11-23T15:44:23;0.51;88.58
70051;SHT30;57391;51.306;22.680;2022-11-23T15:46:55;0.53;88.54
70051;SHT30;57391;51.306;22.680;2022-11-23T15:49:38;0.56;88.46
70051;SHT30;57391;51.306;22.680;2022-11-23T15:52:10;0.54;88.33
70051;SHT30;57391;51.306;22.680;2022-11-23T15:54:42;0.51;88.30
70051;SHT30;57391;51.306;22.680;2022-11-23T15:57:16;0.49;88.26
70051;SHT30;57391;51.306;22.680;2022-11-23T15:59:56;0.48;88.37
70051;SHT30;57391;51.306;22.680;2022-11-23T16:02:28;0.50;88.44
70051;SHT30;57391;51.306;22.680;2022-11-23T16:07:48;0.56;88.41
70051;SHT30;57391;51.306;22.680;2022-11-23T16:10:24;0.57;88.26
70051;SHT30;57391;51.306;22.680;2022-11-23T16:12:57;0.57;88.16
70051;SHT30;57391;51.306;22.680;2022-11-23T16:15:30;0.56;88.10
70051;SHT30;57391;51.306;22.680;2022-11-23T16:18:17;0.55;87.96
70051;SHT30;57391;51.306;22.680;2022-11-23T16:20:52;0.53;87.88
70051;SHT30;57391;51.306;22.680;2022-11-23T16:23:41;0.53;87.92
70051;SHT30;57391;51.306;22.680;2022-11-23T16:26:14;0.49;87.72
70051;SHT30;57391;51.306;22.680;2022-11-23T16:28:52;0.46;87.81
70051;SHT30;57391;51.306;22.680;2022-11-23T16:31:26;0.43;87.89
70051;SHT30;57391;51.306;22.680;2022-11-23T16:34:26;0.40;88.01
70051;SHT30;57391;51.306;22.680;2022-11-23T16:36:55;0.39;88.16
70051;SHT30;57391;51.306;22.680;2022-11-23T16:39:22;0.39;88.19
70051;SHT30;57391;51.306;22.680;2022-11-23T16:41:51;0.39;88.20
70051;SHT30;57391;51.306;22.680;2022-11-23T16:44:18;0.35;88.17
70051;SHT30;57391;51.306;22.680;2022-11-23T16:46:46;0.28;88.13
70051;SHT30;57391;51.306;22.680;2022-11-23T16:49:15;0.27;88.31
70051;SHT30;57391;51.306;22.680;2022-11-23T16:51:46;0.23;88.30
70051;SHT30;57391;51.306;22.680;2022-11-23T16:54:19;0.19;88.23
70051;SHT30;57391;51.306;22.680;2022-11-23T16:56:46;0.16;88.32
70051;SHT30;57391;51.306;22.680;2022-11-23T16:59:16;0.14;88.42
70051;SHT30;57391;51.306;22.680;2022-11-23T17:01:46;0.14;88.40
70051;SHT30;57391;51.306;22.680;2022-11-23T17:04:15;0.12;88.36
70051;SHT30;57391;51.306;22.680;2022-11-23T17:06:43;0.10;88.45
70051;SHT30;57391;51.306;22.680;2022-11-23T17:09:11;0.10;88.50
70051;SHT30;57391;51.306;22.680;2022-11-23T17:11:40;0.08;88.51
70051;SHT30;57391;51.306;22.680;2022-11-23T17:14:12;0.07;88.60
70051;SHT30;57391;51.306;22.680;2022-11-23T17:16:41;0.06;88.61
70051;SHT30;57391;51.306;22.680;2022-11-23T17:19:12;0.06;88.63
70051;SHT30;57391;51.306;22.680;2022-11-23T17:21:42;0.03;88.50
70051;SHT30;57391;51.306;22.680;2022-11-23T17:24:11;-0.00;88.57
70051;SHT30;57391;51.306;22.680;2022-11-23T17:26:50;-0.02;88.61
70051;SHT30;57391;51.306;22.680;2022-11-23T17:29:19;-0.05;88.71
70051;SHT30;57391;51.306;22.680;2022-11-23T17:31:48;-0.06;88.72
70051;SHT30;57391;51.306;22.680;2022-11-23T17:34:17;-0.08;88.76
70051;SHT30;57391;51.306;22.680;2022-11-23T17:36:45;-0.10;88.77
70051;SHT30;57391;51.306;22.680;2022-11-23T17:39:21;-0.11;88.81
70051;SHT30;57391;51.306;22.680;2022-11-23T17:41:51;-0.10;88.92
70051;SHT30;57391;51.306;22.680;2022-11-23T17:44:18;-0.08;88.92
70051;SHT30;57391;51.306;22.680;2022-11-23T17:46:45;-0.07;88.87
70051;SHT30;57391;51.306;22.680;2022-11-23T17:49:14;-0.09;88.76
70051;SHT30;57391;51.306;22.680;2022-11-23T17:51:45;-0.12;88.85
70051;SHT30;57391;51.306;22.680;2022-11-23T17:54:12;-0.15;89.09
70051;SHT30;57391;51.306;22.680;2022-11-23T17:56:40;-0.15;89.24
70051;SHT30;57391;51.306;22.680;2022-11-23T17:59:08;-0.15;89.30
70051;SHT30;57391;51.306;22.680;2022-11-23T18:01:36;-0.14;89.33
70051;SHT30;57391;51.306;22.680;2022-11-23T18:04:04;-0.11;89.39
70051;SHT30;57391;51.306;22.680;2022-11-23T18:06:31;-0.09;89.31
70051;SHT30;57391;51.306;22.680;2022-11-23T18:08:59;-0.09;89.32
70051;SHT30;57391;51.306;22.680;2022-11-23T18:11:27;-0.06;89.44
70051;SHT30;57391;51.306;22.680;2022-11-23T18:13:55;-0.03;89.37
70051;SHT30;57391;51.306;22.680;2022-11-23T18:16:23;-0.02;89.30
70051;SHT30;57391;51.306;22.680;2022-11-23T18:18:51;0.00;89.30
70051;SHT30;57391;51.306;22.680;2022-11-23T18:21:19;0.02;89.30
70051;SHT30;57391;51.306;22.680;2022-11-23T18:23:47;0.03;89.18
70051;SHT30;57391;51.306;22.680;2022-11-23T18:26:19;0.03;89.07
70051;SHT30;57391;51.306;22.680;2022-11-23T18:28:53;0.03;89.03
70051;SHT30;57391;51.306;22.680;2022-11-23T18:31:20;0.04;89.06
70051;SHT30;57391;51.306;22.680;2022-11-23T18:33:48;0.04;89.04
70051;SHT30;57391;51.306;22.680;2022-11-23T18:36:16;0.05;89.06
70051;SHT30;57391;51.306;22.680;2022-11-23T18:38:43;0.08;89.10
70051;SHT30;57391;51.306;22.680;2022-11-23T18:41:11;0.07;88.95
70051;SHT30;57391;51.306;22.680;2022-11-23T18:43:42;0.06;88.93